sensor_id;sensor_type;location;lat;lon;timestamp;pressure;altitude;pressure_sealevel;temperature;humidity
38225;BME280;24025;48.138;11.428;2022-11-20T00:00:09;94944.94;;;5.34;83.42
38225;BME280;24025;48.138;11.428;2022-11-20T00:02:39;94939.72;;;5.37;83.48
38225;BME280;24025;48.138;11.428;2022-11-20T00:05:10;94940.94;;;5.40;83.39
38225;BME280;24025;48.138;11.428;2022-11-20T00:07:40;94944.41;;;5.44;82.99
38225;BME280;24025;48.138;11.428;2022-11-20T00:10:11;94945.09;;;5.41;82.93
38225;BME280;24025;48.138;11.428;2022-11-20T00:12:41;94948.53;;;5.42;82.46
38225;BME280;24025;48.138;11.428;2022-11-20T00:15:12;94945.28;;;5.48;83.08
38225;BME280;24025;48.138;11.428;2022-11-20T00:17:42;94954.63;;;5.46;82.82
38225;BME280;24025;48.138;11.428;2022-11-20T00:20:13;94950.41;;;5.41;82.75
38225;BME280;24025;48.138;11.428;2022-11-20T00:22:43;94955.94;;;5.36;82.90
38225;BME280;24025;48.138;11.428;2022-11-20T00:25:14;94950.75;;;5.39;82.88
38225;BME280;24025;48.138;11.428;2022-11-20T00:27:44;94953.03;;;5.41;83.28
38225;BME280;24025;48.138;11.428;2022-11-20T00:30:14;94957.56;;;5.40;82.73
38225;BME280;24025;48.138;11.428;2022-11-20T00:32:45;94957.22;;;5.42;82.95
38225;BME280;24025;48.138;11.428;2022-11-20T00:35:15;94954.81;;;5.37;83.26
38225;BME280;24025;48.138;11.428;2022-11-20T00:37:46;94957.03;;;5.35;83.08
38225;BME280;24025;48.138;11.428;2022-11-20T00:40:16;94958.31;;;5.41;82.80
38225;BME280;24025;48.138;11.428;2022-11-20T00:42:46;94957.63;;;5.44;82.99
38225;BME280;24025;48.138;11.428;2022-11-20T00:45:17;94952.69;;;5.43;82.31
38225;BME280;24025;48.138;11.428;2022-11-20T00:47:47;94964.28;;;5.38;82.47
38225;BME280;24025;48.138;11.428;2022-11-20T00:50:18;94965.56;;;5.44;82.10
38225;BME280;24025;48.138;11.428;2022-11-20T00:52:48;94967.44;;;5.44;82.16
38225;BME280;24025;48.138;11.428;2022-11-20T00:55:19;94978.78;;;5.44;82.30
38225;BME280;24025;48.138;11.428;2022-11-20T00:57:49;94974.19;;;5.41;82.07
38225;BME280;24025;48.138;11.428;2022-11-20T01:00:19;94971.44;;;5.37;82.45
38225;BME280;24025;48.138;11.428;2022-11-20T01:02:50;94973.50;;;5.44;82.50
38225;BME280;24025;48.138;11.428;2022-11-20T01:05:20;94978.03;;;5.44;82.20
38225;BME280;24025;48.138;11.428;2022-11-20T01:07:50;94981.06;;;5.46;82.38
38225;BME280;24025;48.138;11.428;2022-11-20T01:10:21;94985.19;;;5.43;82.35
38225;BME280;24025;48.138;11.428;2022-11-20T01:12:51;94988.25;;;5.45;82.43
38225;BME280;24025;48.138;11.428;2022-11-20T01:15:41;94980.84;;;5.35;82.14
38225;BME280;24025;48.138;11.428;2022-11-20T01:18:12;94991.81;;;5.37;82.55
38225;BME280;24025;48.138;11.428;2022-11-20T01:20:42;94987.81;;;5.43;82.76
38225;BME280;24025;48.138;11.428;2022-11-20T01:23:13;94988.94;;;5.42;82.84
38225;BME280;24025;48.138;11.428;2022-11-20T01:25:43;94989.53;;;5.35;82.13
38225;BME280;24025;48.138;11.428;2022-11-20T01:28:13;94988.94;;;5.42;82.89
38225;BME280;24025;48.138;11.428;2022-11-20T01:30:44;94982.53;;;5.43;82.98
38225;BME280;24025;48.138;11.428;2022-11-20T01:33:14;94985.34;;;5.50;83.43
38225;BME280;24025;48.138;11.428;2022-11-20T01:35:44;94994.13;;;5.54;83.34
38225;BME280;24025;48.138;11.428;2022-11-20T01:38:16;94995.84;;;5.47;82.87
38225;BME280;24025;48.138;11.428;2022-11-20T01:40:54;94993.63;;;5.49;83.06
38225;BME280;24025;48.138;11.428;2022-11-20T01:43:26;94995.50;;;5.48;83.52
38225;BME280;24025;48.138;11.428;2022-11-20T01:46:08;94993.13;;;5.43;83.45
38225;BME280;24025;48.138;11.428;2022-11-20T01:49:45;94994.22;;;5.42;83.64
38225;BME280;24025;48.138;11.428;2022-11-20T01:52:02;94990.47;;;5.43;83.69
38225;BME280;24025;48.138;11.428;2022-11-20T01:54:41;94994.22;;;5.42;84.21
38225;BME280;24025;48.138;11.428;2022-11-20T01:57:13;94996.53;;;5.44;83.77
38225;BME280;24025;48.138;11.428;2022-11-20T01:59:46;94994.47;;;5.37;83.41
38225;BME280;24025;48.138;11.428;2022-11-20T02:02:20;94994.47;;;5.37;83.62
38225;BME280;24025;48.138;11.428;2022-11-20T02:04:51;94991.47;;;5.38;84.06
38225;BME280;24025;48.138;11.428;2022-11-20T02:07:24;94994.06;;;5.35;83.37
38225;BME280;24025;48.138;11.428;2022-11-20T02:09:54;95001.56;;;5.33;83.35
38225;BME280;24025;48.138;11.428;2022-11-20T02:12:25;94997.97;;;5.41;83.51
38225;BME280;24025;48.138;11.428;2022-11-20T02:15:15;94996.69;;;5.35;83.64
38225;BME280;24025;48.138;11.428;2022-11-20T02:17:46;94999.00;;;5.36;82.25
38225;BME280;24025;48.138;11.428;2022-11-20T02:20:16;95003.50;;;5.36;82.97
38225;BME280;24025;48.138;11.428;2022-11-20T02:23:09;95003.44;;;5.32;83.25
38225;BME280;24025;48.138;11.428;2022-11-20T02:25:42;94992.53;;;5.34;82.33
38225;BME280;24025;48.138;11.428;2022-11-20T02:28:13;94997.88;;;5.37;82.31
38225;BME280;24025;48.138;11.428;2022-11-20T02:30:43;94996.63;;;5.31;82.42
38225;BME280;24025;48.138;11.428;2022-11-20T02:33:14;94994.47;;;5.37;81.33
38225;BME280;24025;48.138;11.428;2022-11-20T02:35:46;94994.28;;;5.30;82.45
38225;BME280;24025;48.138;11.428;2022-11-20T02:38:16;94995.84;;;5.31;81.91
38225;BME280;24025;48.138;11.428;2022-11-20T02:40:47;94997.22;;;5.25;82.22
38225;BME280;24025;48.138;11.428;2022-11-20T02:43:18;95000.38;;;5.30;82.18
38225;BME280;24025;48.138;11.428;2022-11-20T02:45:48;94995.41;;;5.29;82.12
38225;BME280;24025;48.138;11.428;2022-11-20T02:48:18;94995.25;;;5.22;81.29
38225;BME280;24025;48.138;11.428;2022-11-20T02:50:49;94990.41;;;5.24;81.62
38225;BME280;24025;48.138;11.428;2022-11-20T02:53:19;94995.41;;;5.29;81.17
38225;BME280;24025;48.138;11.428;2022-11-20T02:55:50;94995.50;;;5.32;81.41
38225;BME280;24025;48.138;11.428;2022-11-20T02:58:20;94990.22;;;5.32;80.82
38225;BME280;24025;48.138;11.428;2022-11-20T03:00:52;94995.09;;;5.30;80.54
38225;BME280;24025;48.138;11.428;2022-11-20T03:03:22;94994.91;;;5.39;80.01
38225;BME280;24025;48.138;11.428;2022-11-20T03:05:52;94996.19;;;5.29;80.58
38225;BME280;24025;48.138;11.428;2022-11-20T03:08:23;94992.19;;;5.35;79.82
38225;BME280;24025;48.138;11.428;2022-11-20T03:10:53;94991.41;;;5.35;80.25
38225;BME280;24025;48.138;11.428;2022-11-20T03:13:25;94990.28;;;5.36;80.22
38225;BME280;24025;48.138;11.428;2022-11-20T03:15:55;94982.78;;;5.38;79.72
38225;BME280;24025;48.138;11.428;2022-11-20T03:18:28;94987.00;;;5.39;79.56
38225;BME280;24025;48.138;11.428;2022-11-20T03:20:58;94993.81;;;5.40;79.88
38225;BME280;24025;48.138;11.428;2022-11-20T03:23:30;94988.19;;;5.42;79.79
38225;BME280;24025;48.138;11.428;2022-11-20T03:26:22;94985.13;;;5.39;79.82
38225;BME280;24025;48.138;11.428;2022-11-20T03:28:55;94988.59;;;5.28;80.03
38225;BME280;24025;48.138;11.428;2022-11-20T03:31:28;94987.81;;;5.27;80.10
38225;BME280;24025;48.138;11.428;2022-11-20T03:33:59;94985.28;;;5.31;80.41
38225;BME280;24025;48.138;11.428;2022-11-20T03:36:30;94980.13;;;5.38;80.21
38225;BME280;24025;48.138;11.428;2022-11-20T03:39:01;94993.03;;;5.39;79.82
38225;BME280;24025;48.138;11.428;2022-11-20T03:41:35;94989.94;;;5.37;79.95
38225;BME280;24025;48.138;11.428;2022-11-20T03:44:07;94991.25;;;5.44;79.81
38225;BME280;24025;48.138;11.428;2022-11-20T03:46:38;94992.59;;;5.37;79.54
38225;BME280;24025;48.138;11.428;2022-11-20T03:49:09;94996.88;;;5.26;79.96
38225;BME280;24025;48.138;11.428;2022-11-20T03:51:39;95000.69;;;5.29;79.79
38225;BME280;24025;48.138;11.428;2022-11-20T03:54:09;94995.75;;;5.27;79.69
38225;BME280;24025;48.138;11.428;2022-11-20T03:56:40;94995.34;;;5.25;79.95
38225;BME280;24025;48.138;11.428;2022-11-20T03:59:10;94999.50;;;5.26;79.41
38225;BME280;24025;48.138;11.428;2022-11-20T04:01:41;94998.06;;;5.29;79.64
38225;BME280;24025;48.138;11.428;2022-11-20T04:04:11;95002.84;;;5.23;79.46
38225;BME280;24025;48.138;11.428;2022-11-20T04:06:42;94999.09;;;5.24;78.81
38225;BME280;24025;48.138;11.428;2022-11-20T04:09:12;94996.78;;;5.23;79.15
38225;BME280;24025;48.138;11.428;2022-11-20T04:11:42;95000.38;;;5.30;79.58
38225;BME280;24025;48.138;11.428;2022-11-20T04:14:15;94998.16;;;5.32;79.19
38225;BME280;24025;48.138;11.428;2022-11-20T04:16:45;94991.66;;;5.30;79.04
38225;BME280;24025;48.138;11.428;2022-11-20T04:19:16;94988.75;;;5.35;78.90
38225;BME280;24025;48.138;11.428;2022-11-20T04:21:46;94994.63;;;5.28;78.65
38225;BME280;24025;48.138;11.428;2022-11-20T04:24:17;94997.81;;;5.34;78.91
38225;BME280;24025;48.138;11.428;2022-11-20T04:26:47;94997.38;;;5.32;78.63
38225;BME280;24025;48.138;11.428;2022-11-20T04:29:18;94994.41;;;5.33;78.63
38225;BME280;24025;48.138;11.428;2022-11-20T04:31:48;94993.72;;;5.36;78.72
38225;BME280;24025;48.138;11.428;2022-11-20T04:34:18;94991.81;;;5.37;78.74
38225;BME280;24025;48.138;11.428;2022-11-20T04:36:49;94991.06;;;5.36;79.04
38225;BME280;24025;48.138;11.428;2022-11-20T04:39:19;94990.72;;;5.38;79.14
38225;BME280;24025;48.138;11.428;2022-11-20T04:41:49;94997.97;;;5.41;79.59
38225;BME280;24025;48.138;11.428;2022-11-20T04:44:40;95001.03;;;5.27;79.53
38225;BME280;24025;48.138;11.428;2022-11-20T04:47:10;94991.22;;;5.28;79.82
38225;BME280;24025;48.138;11.428;2022-11-20T04:49:40;94999.59;;;5.30;79.78
38225;BME280;24025;48.138;11.428;2022-11-20T04:52:11;94991.56;;;5.26;79.67
38225;BME280;24025;48.138;11.428;2022-11-20T04:54:42;94994.56;;;5.25;79.79
38225;BME280;24025;48.138;11.428;2022-11-20T04:57:13;95001.72;;;5.24;79.95
38225;BME280;24025;48.138;11.428;2022-11-20T04:59:43;94991.16;;;5.24;79.73
38225;BME280;24025;48.138;11.428;2022-11-20T05:02:13;94994.50;;;5.21;79.80
38225;BME280;24025;48.138;11.428;2022-11-20T05:04:44;94993.03;;;5.24;79.54
38225;BME280;24025;48.138;11.428;2022-11-20T05:07:14;94990.63;;;5.19;79.78
38225;BME280;24025;48.138;11.428;2022-11-20T05:09:44;94987.31;;;5.22;79.60
38225;BME280;24025;48.138;11.428;2022-11-20T05:12:15;94986.03;;;5.16;79.80
38225;BME280;24025;48.138;11.428;2022-11-20T05:14:45;94988.75;;;5.19;80.31
38225;BME280;24025;48.138;11.428;2022-11-20T05:17:16;94988.56;;;5.12;80.12
38225;BME280;24025;48.138;11.428;2022-11-20T05:19:46;94998.91;;;5.17;80.09
38225;BME280;24025;48.138;11.428;2022-11-20T05:22:16;94998.72;;;5.10;80.44
38225;BME280;24025;48.138;11.428;2022-11-20T05:24:47;94996.09;;;5.10;80.30
38225;BME280;24025;48.138;11.428;2022-11-20T05:27:17;94998.47;;;5.15;80.35
38225;BME280;24025;48.138;11.428;2022-11-20T05:29:48;94998.38;;;5.11;79.76
38225;BME280;24025;48.138;11.428;2022-11-20T05:32:18;95001.47;;;5.14;79.05
38225;BME280;24025;48.138;11.428;2022-11-20T05:34:48;94996.00;;;5.06;79.29
38225;BME280;24025;48.138;11.428;2022-11-20T05:37:19;95004.53;;;5.16;79.43
38225;BME280;24025;48.138;11.428;2022-11-20T05:39:49;94999.16;;;5.12;79.49
38225;BME280;24025;48.138;11.428;2022-11-20T05:42:19;95000.94;;;5.08;79.76
38225;BME280;24025;48.138;11.428;2022-11-20T05:45:03;94989.69;;;5.11;79.79
38225;BME280;24025;48.138;11.428;2022-11-20T05:47:34;95000.25;;;5.11;79.57
38225;BME280;24025;48.138;11.428;2022-11-20T05:50:05;94999.50;;;5.10;80.14
38225;BME280;24025;48.138;11.428;2022-11-20T05:52:36;94996.94;;;5.14;80.84
38225;BME280;24025;48.138;11.428;2022-11-20T05:55:07;94992.84;;;5.17;80.49
38225;BME280;24025;48.138;11.428;2022-11-20T05:57:37;94994.81;;;5.04;80.06
38225;BME280;24025;48.138;11.428;2022-11-20T06:00:08;95000.88;;;5.04;80.11
38225;BME280;24025;48.138;11.428;2022-11-20T06:02:38;95003.75;;;4.99;80.21
38225;BME280;24025;48.138;11.428;2022-11-20T06:05:09;94999.50;;;4.95;80.21
38225;BME280;24025;48.138;11.428;2022-11-20T06:07:39;95004.13;;;4.86;80.35
38225;BME280;24025;48.138;11.428;2022-11-20T06:10:10;94999.19;;;4.84;80.03
38225;BME280;24025;48.138;11.428;2022-11-20T06:12:40;95004.81;;;4.82;81.19
38225;BME280;24025;48.138;11.428;2022-11-20T06:15:10;95006.50;;;4.75;80.52
38225;BME280;24025;48.138;11.428;2022-11-20T06:17:41;95005.38;;;4.76;79.19
38225;BME280;24025;48.138;11.428;2022-11-20T06:20:11;95005.84;;;4.78;80.29
38225;BME280;24025;48.138;11.428;2022-11-20T06:22:42;95006.22;;;4.64;78.96
38225;BME280;24025;48.138;11.428;2022-11-20T06:25:12;95006.13;;;4.61;78.69
38225;BME280;24025;48.138;11.428;2022-11-20T06:27:42;94999.50;;;4.67;78.70
38225;BME280;24025;48.138;11.428;2022-11-20T06:30:13;95005.53;;;4.67;77.49
38225;BME280;24025;48.138;11.428;2022-11-20T06:32:43;95007.75;;;4.65;76.87
38225;BME280;24025;48.138;11.428;2022-11-20T06:35:14;95015.03;;;4.68;77.23
38225;BME280;24025;48.138;11.428;2022-11-20T06:37:44;95019.75;;;4.63;76.65
38225;BME280;24025;48.138;11.428;2022-11-20T06:40:14;95018.44;;;4.69;76.78
38225;BME280;24025;48.138;11.428;2022-11-20T06:42:45;95021.91;;;4.73;76.84
38225;BME280;24025;48.138;11.428;2022-11-20T06:45:15;95024.03;;;4.67;75.92
38225;BME280;24025;48.138;11.428;2022-11-20T06:47:45;95023.78;;;4.72;75.67
38225;BME280;24025;48.138;11.428;2022-11-20T06:50:16;95026.09;;;4.74;75.86
38225;BME280;24025;48.138;11.428;2022-11-20T06:52:46;95025.31;;;4.73;76.12
38225;BME280;24025;48.138;11.428;2022-11-20T06:55:17;95022.88;;;4.80;75.99
38225;BME280;24025;48.138;11.428;2022-11-20T06:57:47;95027.19;;;4.73;75.37
38225;BME280;24025;48.138;11.428;2022-11-20T07:00:17;95033.88;;;4.82;75.98
38225;BME280;24025;48.138;11.428;2022-11-20T07:02:48;95039.56;;;4.84;75.92
38225;BME280;24025;48.138;11.428;2022-11-20T07:05:18;95038.03;;;4.83;76.14
38225;BME280;24025;48.138;11.428;2022-11-20T07:07:49;95039.84;;;4.79;76.07
38225;BME280;24025;48.138;11.428;2022-11-20T07:10:19;95042.00;;;4.90;76.63
38225;BME280;24025;48.138;11.428;2022-11-20T07:12:53;95039.69;;;4.88;76.37
38225;BME280;24025;48.138;11.428;2022-11-20T07:15:24;95035.50;;;4.87;76.51
38225;BME280;24025;48.138;11.428;2022-11-20T07:17:55;95040.53;;;4.92;76.53
38225;BME280;24025;48.138;11.428;2022-11-20T07:20:25;95048.31;;;5.01;75.93
38225;BME280;24025;48.138;11.428;2022-11-20T07:22:56;95042.94;;;4.97;76.57
38225;BME280;24025;48.138;11.428;2022-11-20T07:25:28;95044.47;;;4.98;76.69
38225;BME280;24025;48.138;11.428;2022-11-20T07:27:59;95044.06;;;4.96;76.45
38225;BME280;24025;48.138;11.428;2022-11-20T07:30:30;95049.50;;;5.03;77.15
38225;BME280;24025;48.138;11.428;2022-11-20T07:33:01;95045.53;;;5.09;76.76
38225;BME280;24025;48.138;11.428;2022-11-20T07:35:31;95050.72;;;5.06;76.61
38225;BME280;24025;48.138;11.428;2022-11-20T07:38:02;95047.31;;;5.05;76.76
38225;BME280;24025;48.138;11.428;2022-11-20T07:40:32;95051.22;;;5.11;76.78
38225;BME280;24025;48.138;11.428;2022-11-20T07:43:02;95043.50;;;5.19;76.63
38225;BME280;24025;48.138;11.428;2022-11-20T07:45:33;95050.00;;;5.21;76.50
38225;BME280;24025;48.138;11.428;2022-11-20T07:48:03;95048.78;;;5.19;75.85
38225;BME280;24025;48.138;11.428;2022-11-20T07:50:34;95047.34;;;5.21;76.83
38225;BME280;24025;48.138;11.428;2022-11-20T07:53:04;95045.63;;;5.13;76.78
38225;BME280;24025;48.138;11.428;2022-11-20T07:55:35;95050.56;;;5.15;76.17
38225;BME280;24025;48.138;11.428;2022-11-20T07:58:06;95051.75;;;5.17;75.98
38225;BME280;24025;48.138;11.428;2022-11-20T08:00:36;95048.19;;;5.25;75.67
38225;BME280;24025;48.138;11.428;2022-11-20T08:03:07;95050.66;;;5.18;75.91
38225;BME280;24025;48.138;11.428;2022-11-20T08:05:37;95056.53;;;5.27;76.18
38225;BME280;24025;48.138;11.428;2022-11-20T08:08:07;95056.03;;;5.37;76.09
38225;BME280;24025;48.138;11.428;2022-11-20T08:10:38;95060.41;;;5.46;76.26
38225;BME280;24025;48.138;11.428;2022-11-20T08:13:08;95075.16;;;5.47;75.41
38225;BME280;24025;48.138;11.428;2022-11-20T08:15:57;95061.63;;;5.48;75.07
38225;BME280;24025;48.138;11.428;2022-11-20T08:18:27;95057.84;;;5.49;74.50
38225;BME280;24025;48.138;11.428;2022-11-20T08:21:02;95062.03;;;5.50;74.01
38225;BME280;24025;48.138;11.428;2022-11-20T08:23:33;95068.44;;;5.49;74.06
38225;BME280;24025;48.138;11.428;2022-11-20T08:26:04;95062.72;;;5.63;74.64
38225;BME280;24025;48.138;11.428;2022-11-20T08:28:34;95061.00;;;5.71;73.64
38225;BME280;24025;48.138;11.428;2022-11-20T08:31:05;95063.81;;;5.78;73.78
38225;BME280;24025;48.138;11.428;2022-11-20T08:33:35;95060.25;;;5.86;73.11
38225;BME280;24025;48.138;11.428;2022-11-20T08:36:06;95060.66;;;5.88;72.29
38225;BME280;24025;48.138;11.428;2022-11-20T08:38:36;95062.47;;;5.84;72.05
38225;BME280;24025;48.138;11.428;2022-11-20T08:41:07;95060.00;;;5.91;71.05
38225;BME280;24025;48.138;11.428;2022-11-20T08:43:57;95060.94;;;5.99;70.98
38225;BME280;24025;48.138;11.428;2022-11-20T08:46:39;95058.44;;;6.06;70.84
38225;BME280;24025;48.138;11.428;2022-11-20T08:49:14;95056.50;;;6.03;70.16
38225;BME280;24025;48.138;11.428;2022-11-20T08:51:44;95058.97;;;6.11;69.96
38225;BME280;24025;48.138;11.428;2022-11-20T08:54:17;95054.16;;;6.17;70.03
38225;BME280;24025;48.138;11.428;2022-11-20T08:56:49;95050.47;;;6.21;70.27
38225;BME280;24025;48.138;11.428;2022-11-20T08:59:20;95053.69;;;6.31;69.25
38225;BME280;24025;48.138;11.428;2022-11-20T09:01:50;95051.47;;;6.33;69.38
38225;BME280;24025;48.138;11.428;2022-11-20T09:04:21;95051.97;;;6.38;68.99
38225;BME280;24025;48.138;11.428;2022-11-20T09:06:51;95056.75;;;6.33;68.34
38225;BME280;24025;48.138;11.428;2022-11-20T09:09:22;95044.03;;;6.38;67.98
38225;BME280;24025;48.138;11.428;2022-11-20T09:11:52;95048.63;;;6.41;68.15
38225;BME280;24025;48.138;11.428;2022-11-20T09:14:23;95054.53;;;6.35;68.03
38225;BME280;24025;48.138;11.428;2022-11-20T09:16:59;95055.09;;;6.44;68.32
38225;BME280;24025;48.138;11.428;2022-11-20T09:19:29;95057.44;;;6.45;67.62
38225;BME280;24025;48.138;11.428;2022-11-20T09:22:00;95056.91;;;6.40;67.44
38225;BME280;24025;48.138;11.428;2022-11-20T09:24:30;95055.25;;;6.51;67.22
38225;BME280;24025;48.138;11.428;2022-11-20T09:27:04;95047.41;;;6.55;67.53
38225;BME280;24025;48.138;11.428;2022-11-20T09:29:35;95047.03;;;6.56;66.80
38225;BME280;24025;48.138;11.428;2022-11-20T09:32:05;95045.28;;;6.44;66.98
38225;BME280;24025;48.138;11.428;2022-11-20T09:34:36;95037.06;;;6.49;66.81
38225;BME280;24025;48.138;11.428;2022-11-20T09:37:06;95046.34;;;6.59;66.97
38225;BME280;24025;48.138;11.428;2022-11-20T09:39:37;95040.53;;;6.53;66.79
38225;BME280;24025;48.138;11.428;2022-11-20T09:45:21;95041.75;;;6.75;65.23
38225;BME280;24025;48.138;11.428;2022-11-20T09:47:57;95033.94;;;6.82;65.41
38225;BME280;24025;48.138;11.428;2022-11-20T09:50:42;95031.81;;;7.11;65.80
38225;BME280;24025;48.138;11.428;2022-11-20T09:56:11;95033.41;;;7.38;63.73
38225;BME280;24025;48.138;11.428;2022-11-20T09:58:45;95026.47;;;7.53;63.19
38225;BME280;24025;48.138;11.428;2022-11-20T10:01:21;95021.63;;;7.59;62.94
38225;BME280;24025;48.138;11.428;2022-11-20T10:04:00;95009.91;;;7.60;62.65
38225;BME280;24025;48.138;11.428;2022-11-20T10:06:39;95022.97;;;7.72;61.91
38225;BME280;24025;48.138;11.428;2022-11-20T10:23:35;95021.66;;;7.85;63.47
38225;BME280;24025;48.138;11.428;2022-11-20T10:29:15;95014.81;;;8.11;61.42
38225;BME280;24025;48.138;11.428;2022-11-20T10:32:11;95015.25;;;8.13;61.85
38225;BME280;24025;48.138;11.428;2022-11-20T10:34:52;95016.28;;;8.05;61.97
38225;BME280;24025;48.138;11.428;2022-11-20T10:37:26;95024.78;;;7.91;62.16
38225;BME280;24025;48.138;11.428;2022-11-20T10:42:35;95030.50;;;7.93;61.94
38225;BME280;24025;48.138;11.428;2022-11-20T10:48:14;95036.94;;;7.92;61.03
38225;BME280;24025;48.138;11.428;2022-11-20T10:53:45;95032.75;;;7.91;60.72
38225;BME280;24025;48.138;11.428;2022-11-20T10:56:24;95028.19;;;7.91;60.51
38225;BME280;24025;48.138;11.428;2022-11-20T11:02:00;95025.63;;;7.72;61.60
38225;BME280;24025;48.138;11.428;2022-11-20T11:04:44;95021.50;;;7.75;61.52
38225;BME280;24025;48.138;11.428;2022-11-20T11:09:56;95017.84;;;8.09;60.93
38225;BME280;24025;48.138;11.428;2022-11-20T11:12:28;95008.19;;;7.98;61.66
38225;BME280;24025;48.138;11.428;2022-11-20T11:14:59;95008.09;;;7.90;61.55
38225;BME280;24025;48.138;11.428;2022-11-20T11:17:31;95003.78;;;7.82;62.32
38225;BME280;24025;48.138;11.428;2022-11-20T11:23:10;94994.16;;;7.71;62.76
38225;BME280;24025;48.138;11.428;2022-11-20T11:26:00;94997.22;;;7.73;62.69
38225;BME280;24025;48.138;11.428;2022-11-20T11:28:31;94995.56;;;7.64;62.19
38225;BME280;24025;48.138;11.428;2022-11-20T11:31:01;94998.88;;;7.58;62.59
38225;BME280;24025;48.138;11.428;2022-11-20T11:33:32;94990.91;;;7.58;62.59
38225;BME280;24025;48.138;11.428;2022-11-20T11:36:18;94995.00;;;7.52;62.11
38225;BME280;24025;48.138;11.428;2022-11-20T11:38:51;94997.19;;;7.46;62.43
38225;BME280;24025;48.138;11.428;2022-11-20T11:41:30;94997.84;;;7.66;61.96
38225;BME280;24025;48.138;11.428;2022-11-20T11:44:20;94980.03;;;7.66;62.09
38225;BME280;24025;48.138;11.428;2022-11-20T11:47:17;94986.13;;;7.67;61.32
38225;BME280;24025;48.138;11.428;2022-11-20T11:55:29;94994.31;;;7.81;60.28
38225;BME280;24025;48.138;11.428;2022-11-20T12:04:04;95000.72;;;7.08;69.37
38225;BME280;24025;48.138;11.428;2022-11-20T12:06:36;95017.41;;;6.70;69.66
38225;BME280;24025;48.138;11.428;2022-11-20T12:09:10;94996.28;;;6.73;70.24
38225;BME280;24025;48.138;11.428;2022-11-20T12:11:58;94991.13;;;6.61;69.89
38225;BME280;24025;48.138;11.428;2022-11-20T12:14:37;95004.53;;;6.49;69.71
38225;BME280;24025;48.138;11.428;2022-11-20T12:17:13;94993.94;;;6.49;69.98
38225;BME280;24025;48.138;11.428;2022-11-20T12:19:44;95003.81;;;6.52;71.30
38225;BME280;24025;48.138;11.428;2022-11-20T12:25:28;94992.81;;;6.31;71.12
38225;BME280;24025;48.138;11.428;2022-11-20T12:30:32;94981.66;;;6.41;72.09
38225;BME280;24025;48.138;11.428;2022-11-20T12:33:12;94986.69;;;6.46;72.18
38225;BME280;24025;48.138;11.428;2022-11-20T12:38:55;94987.50;;;6.50;71.34
38225;BME280;24025;48.138;11.428;2022-11-20T12:42:05;94984.28;;;6.60;72.18
38225;BME280;24025;48.138;11.428;2022-11-20T12:45:41;94989.66;;;6.44;71.46
38225;BME280;24025;48.138;11.428;2022-11-20T12:54:25;94990.31;;;6.38;71.64
38225;BME280;24025;48.138;11.428;2022-11-20T12:57:18;94999.56;;;6.28;71.27
38225;BME280;24025;48.138;11.428;2022-11-20T13:00:14;94988.63;;;6.30;72.15
38225;BME280;24025;48.138;11.428;2022-11-20T13:03:24;94996.97;;;6.32;72.00
38225;BME280;24025;48.138;11.428;2022-11-20T13:08:29;94994.47;;;6.19;74.28
38225;BME280;24025;48.138;11.428;2022-11-20T13:17:00;94977.06;;;6.18;76.88
38225;BME280;24025;48.138;11.428;2022-11-20T13:19:34;94970.22;;;6.17;76.93
38225;BME280;24025;48.138;11.428;2022-11-20T13:22:05;94967.75;;;6.09;77.82
38225;BME280;24025;48.138;11.428;2022-11-20T13:24:35;94974.94;;;6.08;77.53
38225;BME280;24025;48.138;11.428;2022-11-20T13:29:46;94969.41;;;5.97;78.51
38225;BME280;24025;48.138;11.428;2022-11-20T13:32:18;94969.94;;;6.03;78.18
38225;BME280;24025;48.138;11.428;2022-11-20T13:35:01;94960.69;;;6.13;77.78
38225;BME280;24025;48.138;11.428;2022-11-20T13:37:33;94966.66;;;6.10;76.49
38225;BME280;24025;48.138;11.428;2022-11-20T13:42:44;94954.53;;;6.09;76.87
38225;BME280;24025;48.138;11.428;2022-11-20T13:45:27;94948.56;;;6.12;76.98
38225;BME280;24025;48.138;11.428;2022-11-20T13:48:03;94949.53;;;6.04;76.88
38225;BME280;24025;48.138;11.428;2022-11-20T13:50:39;94951.81;;;6.05;76.01
38225;BME280;24025;48.138;11.428;2022-11-20T14:01:49;94937.25;;;6.15;75.81
38225;BME280;24025;48.138;11.428;2022-11-20T14:04:26;94939.28;;;6.21;75.29
38225;BME280;24025;48.138;11.428;2022-11-20T14:06:57;94941.66;;;6.27;74.98
38225;BME280;24025;48.138;11.428;2022-11-20T14:09:33;94946.25;;;6.30;73.83
38225;BME280;24025;48.138;11.428;2022-11-20T14:12:15;94943.88;;;6.24;73.95
38225;BME280;24025;48.138;11.428;2022-11-20T14:14:49;94939.44;;;6.29;73.41
38225;BME280;24025;48.138;11.428;2022-11-20T14:17:23;94956.00;;;6.25;73.63
38225;BME280;24025;48.138;11.428;2022-11-20T14:19:59;94944.53;;;6.37;73.35
38225;BME280;24025;48.138;11.428;2022-11-20T14:22:31;94950.84;;;6.33;72.92
38225;BME280;24025;48.138;11.428;2022-11-20T14:27:45;94958.66;;;6.25;72.94
38225;BME280;24025;48.138;11.428;2022-11-20T14:30:26;94960.06;;;6.19;73.21
38225;BME280;24025;48.138;11.428;2022-11-20T14:33:01;94955.72;;;6.11;73.27
38225;BME280;24025;48.138;11.428;2022-11-20T14:35:37;94957.94;;;6.09;73.30
38225;BME280;24025;48.138;11.428;2022-11-20T14:38:14;94957.38;;;6.00;72.77
38225;BME280;24025;48.138;11.428;2022-11-20T14:40:45;94950.50;;;5.95;72.91
38225;BME280;24025;48.138;11.428;2022-11-20T14:43:24;94952.28;;;5.91;72.57
38225;BME280;24025;48.138;11.428;2022-11-20T14:46:00;94954.59;;;5.93;73.10
38225;BME280;24025;48.138;11.428;2022-11-20T14:48:55;94954.59;;;5.93;73.20
38225;BME280;24025;48.138;11.428;2022-11-20T14:56:58;94956.19;;;5.82;72.91
38225;BME280;24025;48.138;11.428;2022-11-20T14:59:31;94955.53;;;5.85;72.92
38225;BME280;24025;48.138;11.428;2022-11-20T15:02:10;94949.88;;;5.86;72.62
38225;BME280;24025;48.138;11.428;2022-11-20T15:04:49;94952.44;;;5.83;73.21
38225;BME280;24025;48.138;11.428;2022-11-20T15:07:32;94949.78;;;5.83;72.95
38225;BME280;24025;48.138;11.428;2022-11-20T15:10:05;94954.41;;;5.86;73.06